Terminal Aerodrome Forecast
Issued by NWS Tulsa, OK

Home | Current Version | Previous Version | Text Only | Print | Product List | Glossary On
Versions: 1 2 3 4 5 6 7 8 9 10 11 12 13 14 15 16
000
FTUS44 KTSA 030500
TAFTUL
TAF
KTUL 030525Z 0306/0406 16010KT P6SM OVC007
      TEMPO 0308/0312 3SM BR OVC005
     FM031200 19013KT P6SM OVC007
     FM031800 23014KT 5SM BR OVC015 PROB30 0319/0401 2SM -RA BR
      OVC015
     FM040100 31012G22KT P6SM SCT015 OVC050 PROB30 0401/0406 4SM -RA
      BR OVC015=

USA.gov is the U.S. government's official web portal to all federal, state and local government web resources and services.